createdAt,value
2018-07-14T00:00:10.423Z,100856.91
2018-07-14T00:03:08.605Z,100849.25
2018-07-14T00:06:05.547Z,100851.56
2018-07-14T00:09:03.596Z,100848.71
2018-07-14T00:12:01.291Z,100844.83
2018-07-14T00:14:58.790Z,100848.47
2018-07-14T00:17:56.366Z,100848.10
2018-07-14T00:20:54.173Z,100846.21
2018-07-14T00:23:51.598Z,100848.70
2018-07-14T00:26:48.815Z,100845.64
2018-07-14T00:29:45.956Z,100840.63
2018-07-14T00:32:44.068Z,100839.84
2018-07-14T00:35:42.078Z,100843.23
2018-07-14T00:38:39.475Z,100838.18
2018-07-14T00:41:37.407Z,100836.03
2018-07-14T00:44:35.602Z,100849.55
2018-07-14T00:47:32.796Z,100852.04
2018-07-14T00:50:31.071Z,100850.52
2018-07-14T00:53:29.016Z,100853.28
2018-07-14T00:56:27.070Z,100846.00
2018-07-14T00:59:24.115Z,100848.80
2018-07-14T01:02:22.334Z,100853.08
2018-07-14T01:05:19.349Z,100851.17
2018-07-14T01:08:16.646Z,100848.05
2018-07-14T01:11:13.875Z,100847.85
2018-07-14T01:14:11.987Z,100851.88
2018-07-14T01:17:09.307Z,100842.00
2018-07-14T01:20:06.579Z,100848.05
2018-07-14T01:23:04.217Z,100849.94
2018-07-14T01:26:01.858Z,100848.61
2018-07-14T01:28:59.601Z,100845.62
2018-07-14T01:31:57.353Z,100851.88
2018-07-14T01:34:54.479Z,100848.45
2018-07-14T01:37:52.399Z,100853.25
2018-07-14T01:40:50.512Z,100858.48
2018-07-14T01:43:48.363Z,100859.80
2018-07-14T01:46:46.394Z,100856.45
2018-07-14T01:49:44.477Z,100859.31
2018-07-14T01:52:42.371Z,100854.70
2018-07-14T01:55:39.590Z,100856.52
2018-07-14T01:58:37.042Z,100853.53
2018-07-14T02:01:34.178Z,100858.05
2018-07-14T02:04:32.169Z,100852.39
2018-07-14T02:07:29.447Z,100856.69
2018-07-14T02:10:26.958Z,100858.01
2018-07-14T02:13:24.339Z,100854.45
2018-07-14T02:16:21.625Z,100858.41
2018-07-14T02:19:19.744Z,100854.45
2018-07-14T02:22:17.046Z,100857.85
2018-07-14T02:25:14.386Z,100859.00
2018-07-14T02:28:11.971Z,100863.20
2018-07-14T02:31:09.369Z,100862.80
2018-07-14T02:34:07.209Z,100853.23
2018-07-14T02:37:04.129Z,100854.52
2018-07-14T02:40:02.138Z,100849.58
2018-07-14T02:42:59.355Z,100849.70
2018-07-14T02:45:57.298Z,100850.58
2018-07-14T02:48:54.266Z,100854.42
2018-07-14T02:51:51.307Z,100859.70
2018-07-14T02:54:48.534Z,100852.45
2018-07-14T02:57:45.757Z,100849.77
2018-07-14T03:00:43.754Z,100844.38
2018-07-14T03:03:41.637Z,100847.85
2018-07-14T03:06:38.736Z,100854.02
2018-07-14T03:09:36.064Z,100861.13
2018-07-14T03:12:33.198Z,100849.28
2018-07-14T03:15:30.649Z,100851.73
2018-07-14T03:18:28.235Z,100850.98
2018-07-14T03:21:26.394Z,100849.81
2018-07-14T03:24:23.658Z,100848.04
2018-07-14T03:27:21.175Z,100844.87
2018-07-14T03:30:19.314Z,100838.30
2018-07-14T03:33:16.864Z,100836.31
2018-07-14T03:36:14.635Z,100838.34
2018-07-14T03:39:11.779Z,100839.70
2018-07-14T03:42:09.859Z,100847.36
2018-07-14T03:45:06.919Z,100851.13
2018-07-14T03:48:04.054Z,100840.91
2018-07-14T03:51:01.587Z,100841.27
2018-07-14T03:53:59.295Z,100847.50
2018-07-14T03:56:56.803Z,100841.98
2018-07-14T03:59:55.035Z,100840.15
2018-07-14T04:02:52.191Z,100838.71
2018-07-14T04:05:50.451Z,100829.06
2018-07-14T04:08:47.959Z,100833.05
2018-07-14T04:11:45.130Z,100834.73
2018-07-14T04:14:42.312Z,100837.90
2018-07-14T04:17:39.616Z,100835.38
2018-07-14T04:20:36.722Z,100843.71
2018-07-14T04:23:33.982Z,100840.83
2018-07-14T04:26:31.989Z,100843.36
2018-07-14T04:29:28.942Z,100844.84
2018-07-14T04:32:26.020Z,100836.55
2018-07-14T04:35:24.145Z,100837.03
2018-07-14T04:38:21.615Z,100844.11
2018-07-14T04:41:19.743Z,100840.64
2018-07-14T04:44:17.081Z,100846.65
2018-07-14T04:47:14.558Z,100847.41
2018-07-14T04:50:11.887Z,100849.98
2018-07-14T04:53:09.216Z,100851.86
2018-07-14T04:56:06.489Z,100853.42
2018-07-14T04:59:03.774Z,100853.75
2018-07-14T05:02:01.830Z,100849.09
2018-07-14T05:05:00.046Z,100852.18
2018-07-14T05:07:57.392Z,100841.81
2018-07-14T05:10:54.562Z,100843.55
2018-07-14T05:13:51.788Z,100850.59
2018-07-14T05:16:49.478Z,100845.84
2018-07-14T05:19:47.448Z,100845.84
2018-07-14T05:22:45.516Z,100847.19
2018-07-14T05:25:43.688Z,100846.69
2018-07-14T05:28:41.116Z,100847.98
2018-07-14T05:31:39.311Z,100840.77
2018-07-14T05:34:36.648Z,100843.62
2018-07-14T05:37:34.667Z,100847.97
2018-07-14T05:40:32.645Z,100847.30
2018-07-14T05:43:30.589Z,100844.06
2018-07-14T05:46:28.830Z,100855.09
2018-07-14T05:49:27.034Z,100853.61
2018-07-14T05:52:24.338Z,100850.14
2018-07-14T05:55:21.915Z,100852.77
2018-07-14T05:58:19.274Z,100853.03
2018-07-14T06:01:16.827Z,100855.47
2018-07-14T06:04:14.384Z,100852.05
2018-07-14T06:07:11.526Z,100854.56
2018-07-14T06:10:08.502Z,100863.44
2018-07-14T06:13:06.579Z,100861.31
2018-07-14T06:16:03.853Z,100862.58
2018-07-14T06:19:01.284Z,100854.56
2018-07-14T06:21:58.543Z,100851.93
2018-07-14T06:24:56.214Z,100851.71
2018-07-14T06:27:54.327Z,100851.85
2018-07-14T06:30:52.249Z,100860.82
2018-07-14T06:33:50.187Z,100866.04
2018-07-14T06:36:48.315Z,100862.82
2018-07-14T06:39:46.497Z,100854.97
2018-07-14T06:42:44.460Z,100873.36
2018-07-14T06:45:42.558Z,100870.19
2018-07-14T06:48:40.453Z,100861.95
2018-07-14T06:51:38.519Z,100862.08
2018-07-14T06:54:36.554Z,100867.78
2018-07-14T06:57:34.647Z,100883.84
2018-07-14T07:00:32.536Z,100866.70
2018-07-14T07:03:30.692Z,100871.08
2018-07-14T07:06:28.043Z,100871.46
2018-07-14T07:09:25.234Z,100861.08
2018-07-14T07:12:22.277Z,100871.96
2018-07-14T07:15:20.331Z,100866.59
2018-07-14T07:18:17.594Z,100863.83
2018-07-14T07:21:15.016Z,100874.46
2018-07-14T07:24:12.216Z,100869.78
2018-07-14T07:27:09.687Z,100863.80
2018-07-14T07:30:07.160Z,100876.91
2018-07-14T07:33:04.327Z,100871.54
2018-07-14T07:36:02.299Z,100860.20
2018-07-14T07:39:00.407Z,100853.45
2018-07-14T07:41:58.414Z,100864.36
2018-07-14T07:44:56.393Z,100863.31
2018-07-14T07:47:54.403Z,100861.23
2018-07-14T07:50:52.473Z,100871.45
2018-07-14T07:53:50.430Z,100862.48
2018-07-14T07:56:48.299Z,100869.16
2018-07-14T07:59:46.181Z,100877.72
2018-07-14T08:02:43.176Z,100875.95
2018-07-14T08:05:41.016Z,100868.55
2018-07-14T08:08:38.921Z,100866.20
2018-07-14T08:11:36.846Z,100867.95
2018-07-14T08:14:34.159Z,100868.53
2018-07-14T08:17:31.672Z,100872.52
2018-07-14T08:20:29.077Z,100861.91
2018-07-14T08:23:26.431Z,100863.97
2018-07-14T08:26:23.984Z,100869.06
2018-07-14T08:29:21.149Z,100855.45
2018-07-14T08:32:18.781Z,100865.95
2018-07-14T08:35:16.222Z,100862.39
2018-07-14T08:38:13.867Z,100859.09
2018-07-14T08:41:10.894Z,100863.92
2018-07-14T08:44:08.728Z,100850.47
2018-07-14T08:47:06.223Z,100852.27
2018-07-14T08:50:04.371Z,100857.99
2018-07-14T08:53:02.468Z,100852.77
2018-07-14T08:56:00.747Z,100864.41
2018-07-14T08:58:57.938Z,100858.98
2018-07-14T09:01:55.035Z,100855.34
2018-07-14T09:04:53.235Z,100858.70
2018-07-14T09:07:51.290Z,100863.84
2018-07-14T09:10:49.281Z,100862.77
2018-07-14T09:13:47.594Z,100853.86
2018-07-14T09:16:45.918Z,100860.66
2018-07-14T09:19:43.878Z,100854.37
2018-07-14T09:22:41.767Z,100856.78
2018-07-14T09:25:39.039Z,100853.96
2018-07-14T09:28:36.257Z,100844.83
2018-07-14T09:31:33.843Z,100851.84
2018-07-14T09:34:31.915Z,100847.22
2018-07-14T09:37:30.068Z,100843.34
2018-07-14T09:40:27.231Z,100858.49
2018-07-14T09:43:24.636Z,100847.60
2018-07-14T09:46:22.348Z,100838.69
2018-07-14T09:49:20.270Z,100840.27
2018-07-14T09:52:18.270Z,100829.31
2018-07-14T09:55:15.974Z,100834.80
2018-07-14T09:58:14.054Z,100839.26
2018-07-14T10:01:14.383Z,100830.41
2018-07-14T10:04:11.611Z,100841.72
2018-07-14T10:07:09.543Z,100840.13
2018-07-14T10:10:07.897Z,100829.44
2018-07-14T10:13:05.969Z,100822.88
2018-07-14T10:16:04.127Z,100825.10
2018-07-14T10:19:02.235Z,100827.17
2018-07-14T10:22:00.422Z,100827.14
2018-07-14T10:24:58.443Z,100824.83
2018-07-14T10:27:55.472Z,100827.73
2018-07-14T10:30:53.635Z,100820.91
2018-07-14T10:33:51.595Z,100820.19
2018-07-14T10:36:48.835Z,100814.72
2018-07-14T10:39:47.060Z,100813.28
2018-07-14T10:42:44.301Z,100818.12
2018-07-14T10:45:41.747Z,100820.88
2018-07-14T10:48:39.231Z,100821.70
2018-07-14T10:51:36.425Z,100818.14
2018-07-14T10:54:33.951Z,100813.22
2018-07-14T10:57:31.624Z,100805.27
2018-07-14T11:00:29.110Z,100811.02
2018-07-14T11:03:26.364Z,100803.13
2018-07-14T11:06:24.098Z,100812.09
2018-07-14T11:09:21.985Z,100809.56
2018-07-14T11:12:19.292Z,100798.16
2018-07-14T11:15:17.199Z,100797.11
2018-07-14T11:18:15.058Z,100796.47
2018-07-14T11:21:13.087Z,100799.23
2018-07-14T11:24:11.141Z,100797.73
2018-07-14T11:27:08.934Z,100789.91
2018-07-14T11:30:06.762Z,100782.24
2018-07-14T11:33:04.659Z,100780.53
2018-07-14T11:36:01.827Z,100773.94
2018-07-14T11:39:00.017Z,100782.39
2018-07-14T11:41:57.857Z,100783.52
2018-07-14T11:44:55.788Z,100781.92
2018-07-14T11:47:53.043Z,100779.29
2018-07-14T11:50:50.287Z,100780.44
2018-07-14T11:53:47.876Z,100771.05
2018-07-14T11:56:45.119Z,100775.78
2018-07-14T11:59:42.220Z,100771.82
2018-07-14T12:02:39.697Z,100761.45
2018-07-14T12:05:37.092Z,100754.81
2018-07-14T12:08:34.688Z,100753.04
2018-07-14T12:11:32.318Z,100748.55
2018-07-14T12:14:29.702Z,100750.16
2018-07-14T12:17:27.601Z,100751.48
2018-07-14T12:20:25.207Z,100751.07
2018-07-14T12:23:22.732Z,100742.33
2018-07-14T12:26:20.699Z,100733.56
2018-07-14T12:29:18.791Z,100740.10
2018-07-14T12:32:17.009Z,100743.84
2018-07-14T12:35:15.173Z,100734.92
2018-07-14T12:38:13.587Z,100734.81
2018-07-14T12:41:11.620Z,100731.77
2018-07-14T12:44:09.642Z,100737.43
2018-07-14T12:47:07.518Z,100732.52
2018-07-14T12:50:05.485Z,100723.38
2018-07-14T12:53:03.457Z,100732.43
2018-07-14T12:56:01.402Z,100730.50
2018-07-14T12:58:58.590Z,100724.71
2018-07-14T13:01:57.015Z,100722.39
2018-07-14T13:04:54.166Z,100713.96
2018-07-14T13:07:51.550Z,100713.75
2018-07-14T13:10:49.568Z,100713.34
2018-07-14T13:13:47.478Z,100709.22
2018-07-14T13:16:45.111Z,100712.48
2018-07-14T13:19:42.958Z,100710.22
2018-07-14T13:22:40.323Z,100710.02
2018-07-14T13:25:37.844Z,100700.19
2018-07-14T13:28:35.679Z,100696.66
2018-07-14T13:31:33.659Z,100695.64
2018-07-14T13:34:31.002Z,100692.33
2018-07-14T13:37:28.867Z,100691.09
2018-07-14T13:40:26.944Z,100680.86
2018-07-14T13:43:24.263Z,100683.39
2018-07-14T13:46:22.219Z,100681.45
2018-07-14T13:49:20.174Z,100674.70
2018-07-14T13:52:18.455Z,100671.98
2018-07-14T13:55:16.407Z,100679.36
2018-07-14T13:58:14.473Z,100667.26
2018-07-14T14:01:12.488Z,100673.58
2018-07-14T14:04:10.526Z,100669.28
2018-07-14T14:07:08.427Z,100664.09
2018-07-14T14:10:06.590Z,100661.03
2018-07-14T14:13:04.619Z,100659.28
2018-07-14T14:16:02.262Z,100661.58
2018-07-14T14:18:59.553Z,100664.76
2018-07-14T14:21:57.531Z,100662.95
2018-07-14T14:24:54.528Z,100658.39
2018-07-14T14:27:52.645Z,100661.74
2018-07-14T14:30:49.844Z,100650.94
2018-07-14T14:33:47.403Z,100649.27
2018-07-14T14:36:45.202Z,100648.22
2018-07-14T14:39:42.619Z,100637.10
2018-07-14T14:42:40.135Z,100629.09
2018-07-14T14:45:37.747Z,100626.80
2018-07-14T14:48:35.851Z,100625.34
2018-07-14T14:51:34.060Z,100629.95
2018-07-14T14:54:32.051Z,100623.66
2018-07-14T14:57:30.171Z,100621.61
2018-07-14T15:00:28.090Z,100623.70
2018-07-14T15:03:26.016Z,100627.13
2018-07-14T15:06:23.303Z,100624.32
2018-07-14T15:09:21.498Z,100614.14
2018-07-14T15:12:19.412Z,100604.30
2018-07-14T15:15:17.428Z,100602.72
2018-07-14T15:18:15.300Z,100602.27
2018-07-14T15:21:13.122Z,100599.84
2018-07-14T15:24:10.038Z,100594.88
2018-07-14T15:27:07.231Z,100600.38
2018-07-14T15:30:04.640Z,100600.52
2018-07-14T15:33:02.823Z,100600.37
2018-07-14T15:35:59.694Z,100609.16
2018-07-14T15:38:56.636Z,100604.53
2018-07-14T15:41:54.175Z,100600.46
2018-07-14T15:44:51.705Z,100597.53
2018-07-14T15:47:49.728Z,100599.87
2018-07-14T15:50:46.935Z,100590.61
2018-07-14T15:53:44.168Z,100583.07
2018-07-14T15:56:41.638Z,100588.08
2018-07-14T15:59:39.463Z,100585.95
2018-07-14T16:02:37.102Z,100580.46
2018-07-14T16:05:35.215Z,100574.70
2018-07-14T16:08:32.302Z,100587.50
2018-07-14T16:11:30.243Z,100590.56
2018-07-14T16:14:28.088Z,100585.38
2018-07-14T16:17:26.244Z,100591.08
2018-07-14T16:20:23.614Z,100586.85
2018-07-14T16:23:21.655Z,100577.31
2018-07-14T16:26:19.273Z,100572.59
2018-07-14T16:29:16.426Z,100575.77
2018-07-14T16:32:14.162Z,100567.94
2018-07-14T16:35:12.278Z,100563.58
2018-07-14T16:38:10.219Z,100564.98
2018-07-14T16:41:07.297Z,100563.67
2018-07-14T16:44:04.639Z,100559.87
2018-07-14T16:47:02.611Z,100569.67
2018-07-14T16:49:59.817Z,100571.34
2018-07-14T16:52:57.776Z,100573.44
2018-07-14T16:55:55.719Z,100572.09
2018-07-14T16:58:53.606Z,100575.84
2018-07-14T17:01:50.815Z,100581.10
2018-07-14T17:04:48.380Z,100580.09
2018-07-14T17:07:45.779Z,100576.89
2018-07-14T17:10:42.980Z,100587.96
2018-07-14T17:13:40.712Z,100584.61
2018-07-14T17:16:38.802Z,100583.98
2018-07-14T17:19:36.332Z,100582.25
2018-07-14T17:22:33.583Z,100577.82
2018-07-14T17:25:31.444Z,100575.23
2018-07-14T17:28:29.188Z,100570.90
2018-07-14T17:31:27.176Z,100567.57
2018-07-14T17:34:24.259Z,100569.36
2018-07-14T17:37:22.106Z,100570.38
2018-07-14T17:40:19.628Z,100564.59
2018-07-14T17:43:17.119Z,100569.52
2018-07-14T17:46:15.946Z,100564.68
2018-07-14T17:49:13.105Z,100562.91
2018-07-14T17:52:10.656Z,100567.11
2018-07-14T17:55:08.709Z,100560.91
2018-07-14T17:58:06.812Z,100563.83
2018-07-14T18:01:04.022Z,100562.56
2018-07-14T18:04:01.852Z,100573.92
2018-07-14T18:06:59.658Z,100567.85
2018-07-14T18:09:57.370Z,100563.53
2018-07-14T18:12:55.199Z,100564.05
2018-07-14T18:15:53.170Z,100564.23
2018-07-14T18:18:51.345Z,100560.59
2018-07-14T18:21:48.611Z,100565.87
2018-07-14T18:24:46.739Z,100575.26
2018-07-14T18:27:44.489Z,100567.23
2018-07-14T18:30:42.286Z,100573.75
2018-07-14T18:33:39.298Z,100574.80
2018-07-14T18:36:37.418Z,100568.91
2018-07-14T18:39:35.066Z,100576.02
2018-07-14T18:42:33.076Z,100570.81
2018-07-14T18:45:30.591Z,100584.47
2018-07-14T18:48:28.407Z,100580.23
2018-07-14T18:51:26.189Z,100583.41
2018-07-14T18:54:24.162Z,100580.54
2018-07-14T18:57:21.367Z,100586.44
2018-07-14T19:00:18.646Z,100584.47
2018-07-14T19:03:16.231Z,100592.64
2018-07-14T19:06:13.503Z,100593.29
2018-07-14T19:09:11.866Z,100593.76
2018-07-14T19:12:09.929Z,100599.25
2018-07-14T19:15:07.638Z,100610.52
2018-07-14T19:18:04.996Z,100609.82
2018-07-14T19:21:02.156Z,100616.36
2018-07-14T19:23:59.714Z,100619.08
2018-07-14T19:26:57.132Z,100620.52
2018-07-14T19:29:54.328Z,100623.95
2018-07-14T19:32:51.671Z,100622.58
2018-07-14T19:35:49.663Z,100626.03
2018-07-14T19:38:46.614Z,100626.23
2018-07-14T19:41:44.400Z,100634.86
2018-07-14T19:44:41.680Z,100634.38
2018-07-14T19:47:38.886Z,100639.06
2018-07-14T19:50:36.727Z,100639.68
2018-07-14T19:53:34.538Z,100633.28
2018-07-14T19:56:32.287Z,100632.25
2018-07-14T19:59:30.214Z,100634.78
2018-07-14T20:02:27.721Z,100641.53
2018-07-14T20:05:25.458Z,100635.38
2018-07-14T20:08:22.888Z,100645.28
2018-07-14T20:11:20.090Z,100642.92
2018-07-14T20:14:17.355Z,100641.05
2018-07-14T20:17:15.606Z,100640.42
2018-07-14T20:20:13.031Z,100646.95
2018-07-14T20:23:10.860Z,100646.47
2018-07-14T20:26:08.891Z,100644.68
2018-07-14T20:29:06.088Z,100646.69
2018-07-14T20:32:03.743Z,100647.55
2018-07-14T20:35:01.451Z,100648.09
2018-07-14T20:37:59.296Z,100652.97
2018-07-14T20:40:56.879Z,100654.84
2018-07-14T20:43:54.870Z,100656.02
2018-07-14T20:46:52.918Z,100659.89
2018-07-14T20:49:51.049Z,100662.55
2018-07-14T20:52:49.259Z,100668.89
2018-07-14T20:55:46.848Z,100667.90
2018-07-14T20:58:44.839Z,100663.77
2018-07-14T21:01:42.787Z,100669.11
2018-07-14T21:04:41.058Z,100668.28
2018-07-14T21:07:39.158Z,100673.95
2018-07-14T21:10:36.896Z,100673.46
2018-07-14T21:13:34.610Z,100674.47
2018-07-14T21:16:32.561Z,100671.47
2018-07-14T21:19:30.628Z,100666.30
2018-07-14T21:22:28.503Z,100669.16
2018-07-14T21:25:26.716Z,100668.48
2018-07-14T21:28:24.216Z,100668.00
2018-07-14T21:31:21.519Z,100671.16
2018-07-14T21:34:18.987Z,100668.15
2018-07-14T21:37:16.160Z,100670.77
2018-07-14T21:40:13.828Z,100674.77
2018-07-14T21:43:11.266Z,100675.10
2018-07-14T21:46:08.959Z,100676.73
2018-07-14T21:49:06.086Z,100669.92
2018-07-14T21:52:03.551Z,100679.73
2018-07-14T21:55:01.565Z,100677.53
2018-07-14T21:57:58.751Z,100684.91
2018-07-14T22:01:02.686Z,100679.52
2018-07-14T22:04:00.534Z,100680.60
2018-07-14T22:06:59.626Z,100680.52
2018-07-14T22:09:57.306Z,100674.66
2018-07-14T22:12:55.067Z,100678.22
2018-07-14T22:15:52.451Z,100679.55
2018-07-14T22:18:50.620Z,100677.11
2018-07-14T22:21:48.467Z,100675.38
2018-07-14T22:24:46.110Z,100679.79
2018-07-14T22:27:44.294Z,100687.77
2018-07-14T22:30:42.526Z,100681.90
2018-07-14T22:33:40.411Z,100680.68
2018-07-14T22:36:37.552Z,100680.14
2018-07-14T22:39:34.936Z,100685.30
2018-07-14T22:42:32.059Z,100681.18
2018-07-14T22:45:29.286Z,100680.23
2018-07-14T22:48:26.398Z,100681.42
2018-07-14T22:51:24.457Z,100680.05
2018-07-14T22:54:22.717Z,100681.46
2018-07-14T22:57:19.867Z,100679.36
2018-07-14T23:00:17.979Z,100671.85
2018-07-14T23:03:15.573Z,100677.40
2018-07-14T23:06:12.758Z,100678.47
2018-07-14T23:09:11.087Z,100687.75
2018-07-14T23:12:09.229Z,100687.13
2018-07-14T23:15:06.637Z,100682.70
2018-07-14T23:18:04.565Z,100676.63
2018-07-14T23:21:02.556Z,100678.65
2018-07-14T23:24:09.539Z,100676.72
2018-07-14T23:27:07.483Z,100680.80
2018-07-14T23:30:04.782Z,100682.52
2018-07-14T23:33:02.805Z,100682.20
2018-07-14T23:36:00.026Z,100681.66
2018-07-14T23:38:58.008Z,100672.34
2018-07-14T23:41:55.523Z,100673.54
2018-07-14T23:44:52.790Z,100678.04
2018-07-14T23:47:51.006Z,100675.91
2018-07-14T23:50:48.817Z,100670.70
2018-07-14T23:53:46.178Z,100663.59
2018-07-14T23:56:43.583Z,100669.19
2018-07-14T23:59:40.700Z,100663.20
